首页
METAR-TAF:

METAR-TAF

机场 :

Blytheville Municipal Airport

Blytheville, 阿肯色州, 美国

纬度: 35-56-20N, 经度: 089-49-57W, 海拔: 78米

当前天气观测

该预报发布于1小时和6分钟前的19:53 UTC
风速4节,风向多变
温度 31°C
湿度 49%
气压 1014 hPa
能見度: 16.1公里
天空无云

METAR: KHKA 031953Z AUTO VRB04KT 10SM CLR 31/19 A2993 RMK AO2 SLP133 T03110194 $

时间: 15:59 (20:59 UTC)


TAF: 丢失

超过4000个机场的气象观测和天气预报(METAR&TAF报告)。

可查询的气象台以黄色和红色小点在地图上表示。

将鼠标移到小点上方,可查看气象台名称。

然后点击查看天气观测和预报。

如需切换地图:点击带黑十字的绿色按钮放大地图;点击带横线的绿色按钮缩小地图;或者点击绿色箭头查看邻近地区的地图。


METAR-TAF: